Pleasant Hill, California
Current Conditions -  °F | °C
As of 12:53 PM on Friday 19 Dec 2014 (Local Time) from KCCR Reporting Station
Light Rain Light Rain  
Wind Chill: 58°   Ceiling: 5500
Heat Index: 58°   Visibility: 10mi
Dew Point: 54°   Wind: 5mph
Humidity: 87%   Direction: NA
Pressure: 30.12"   Gusts: NA
Location:  37.95°N, 122.06°W
Report Text: KCCR 192053Z VRB04KT 10SM -RA SCT023 BKN055 OVC095 14/12 A3012 RMK AO2 RAE38B52 SLP186 P0001 60009 T01440122 56016
Loading
Personal Weather Stations






























Interactive Weather Map New forecast layout! Learn more

10-Day Weather Forecast

Advertisements
Track Severe Weather on mobile